createdAt,value
2023-05-09T00:00:01.630Z,22.35
2023-05-09T00:15:01.901Z,22.35
2023-05-09T00:30:02.478Z,22.35
2023-05-09T00:45:03.136Z,22.35
2023-05-09T01:00:01.518Z,22.35
2023-05-09T01:15:02.233Z,22.35
2023-05-09T01:30:02.607Z,22.35
2023-05-09T01:45:01.930Z,22.35
2023-05-09T02:00:01.698Z,22.35
2023-05-09T02:15:02.202Z,22.35
2023-05-09T02:30:02.861Z,22.35
2023-05-09T02:45:01.496Z,22.35
2023-05-09T03:00:01.963Z,22.35
2023-05-09T03:15:02.408Z,22.35
2023-05-09T03:30:01.637Z,22.35
2023-05-09T03:45:01.925Z,22.35
2023-05-09T04:00:02.097Z,22.35
2023-05-09T04:15:02.679Z,22.35
2023-05-09T04:30:01.536Z,22.35
2023-05-09T04:45:01.876Z,22.35
2023-05-09T05:00:02.352Z,22.35
2023-05-09T05:15:01.655Z,22.35
2023-05-09T05:30:02.027Z,22.35
2023-05-09T05:45:01.966Z,22.35
2023-05-09T06:00:02.551Z,22.35
2023-05-09T06:15:01.828Z,22.35
2023-05-09T06:30:06.131Z,22.35
2023-05-09T06:45:02.165Z,22.35
2023-05-09T07:00:02.670Z,22.35
2023-05-09T07:15:01.857Z,22.35
2023-05-09T07:30:02.181Z,22.35
2023-05-09T07:45:02.314Z,22.35
2023-05-09T08:00:02.951Z,22.35
2023-05-09T08:15:01.952Z,22.35
2023-05-09T08:30:01.891Z,22.35
2023-05-09T08:45:02.322Z,22.35
2023-05-09T09:00:03.025Z,22.35
2023-05-09T09:15:01.928Z,22.35
2023-05-09T09:30:02.285Z,20.94
2023-05-09T09:45:01.789Z,20.7
2023-05-09T10:00:01.894Z,20.88
2023-05-09T10:15:01.635Z,20.72
2023-05-09T10:30:01.720Z,21.45
2023-05-09T10:45:02.269Z,22.64
2023-05-09T11:00:01.462Z,22.64
2023-05-09T11:15:01.938Z,22.64
2023-05-09T11:30:02.357Z,27.59
2023-05-09T11:45:01.627Z,29.15
2023-05-09T12:00:01.990Z,29.15
2023-05-09T12:15:02.252Z,29.15
2023-05-09T12:30:02.766Z,29.15
2023-05-09T12:45:03.182Z,29.15
2023-05-09T13:00:01.434Z,29.15
2023-05-09T13:15:02.067Z,29.15
2023-05-09T13:30:01.360Z,29.15
2023-05-09T13:45:01.905Z,29.15
2023-05-09T14:00:02.587Z,29.15
2023-05-09T14:15:03.238Z,29.15
2023-05-09T14:30:01.805Z,29.15
2023-05-09T14:45:02.309Z,29.15
2023-05-09T15:00:13.014Z,29.15
2023-05-09T15:15:01.679Z,29.15
2023-05-09T15:30:02.076Z,29.15
2023-05-09T15:45:02.235Z,29.15
2023-05-09T16:00:02.756Z,29.15
2023-05-09T16:15:01.528Z,29.15
2023-05-09T16:30:01.908Z,29.15
2023-05-09T16:45:02.376Z,29.15
2023-05-09T17:00:01.605Z,29.15
2023-05-09T17:15:01.405Z,29.15
2023-05-09T17:30:01.964Z,29.15
2023-05-09T17:45:02.448Z,29.15
2023-05-09T18:00:01.496Z,29.15
2023-05-09T18:15:01.860Z,29.15
2023-05-09T18:30:02.259Z,29.15
2023-05-09T18:45:02.660Z,29.15
2023-05-09T19:00:01.934Z,29.15
2023-05-09T19:15:01.906Z,29.15
2023-05-09T19:30:02.285Z,29.15
2023-05-09T19:45:02.774Z,29.15
2023-05-09T20:00:01.982Z,29.15
2023-05-09T20:15:01.857Z,29.15
2023-05-09T20:30:02.414Z,29.15
2023-05-09T20:45:03.025Z,29.15
2023-05-09T21:00:01.526Z,29.15
2023-05-09T21:15:02.080Z,29.15
2023-05-09T21:30:01.427Z,29.15
2023-05-09T21:45:01.790Z,29.15
2023-05-09T22:00:02.153Z,29.15
2023-05-09T22:15:02.381Z,29.15
2023-05-09T22:30:01.992Z,29.15
2023-05-09T22:45:02.069Z,29.15
2023-05-09T23:00:02.055Z,29.15
2023-05-09T23:15:02.591Z,29.15
2023-05-09T23:30:03.223Z,29.15
2023-05-09T23:45:01.623Z,29.15
